sensor_id;sensor_type;location;lat;lon;timestamp;pressure;altitude;pressure_sealevel;temperature;humidity
17855;BME280;9053;53.358;6.382;2023-07-13T00:02:23;101106.84;;;19.45;90.61
17855;BME280;9053;53.358;6.382;2023-07-13T00:04:56;101113.97;;;19.44;90.85
17855;BME280;9053;53.358;6.382;2023-07-13T00:07:26;101112.19;;;19.45;91.21
17855;BME280;9053;53.358;6.382;2023-07-13T00:09:58;101107.75;;;19.45;91.29
17855;BME280;9053;53.358;6.382;2023-07-13T00:12:31;101112.19;;;19.45;91.62
17855;BME280;9053;53.358;6.382;2023-07-13T00:15:04;101112.19;;;19.46;92.01
17855;BME280;9053;53.358;6.382;2023-07-13T00:17:34;101116.63;;;19.48;92.11
17855;BME280;9053;53.358;6.382;2023-07-13T00:20:09;101111.31;;;19.46;92.48
17855;BME280;9053;53.358;6.382;2023-07-13T00:22:39;101116.63;;;19.48;92.71
17855;BME280;9053;53.358;6.382;2023-07-13T00:25:10;101114.84;;;19.50;92.78
17855;BME280;9053;53.358;6.382;2023-07-13T00:27:44;101114.84;;;19.50;92.96
17855;BME280;9053;53.358;6.382;2023-07-13T00:30:15;101113.97;;;19.52;93.34
17855;BME280;9053;53.358;6.382;2023-07-13T00:32:45;101116.66;;;19.54;93.40
17855;BME280;9053;53.358;6.382;2023-07-13T00:35:18;101116.66;;;19.54;93.67
17855;BME280;9053;53.358;6.382;2023-07-13T00:37:48;101117.53;;;19.54;93.65
17855;BME280;9053;53.358;6.382;2023-07-13T00:40:19;101130.84;;;19.53;93.61
17855;BME280;9053;53.358;6.382;2023-07-13T00:42:51;101126.44;;;19.53;93.82
17855;BME280;9053;53.358;6.382;2023-07-13T00:48:32;101113.97;;;19.49;93.76
17855;BME280;9053;53.358;6.382;2023-07-13T00:51:06;101121.06;;;19.47;94.06
17855;BME280;9053;53.358;6.382;2023-07-13T00:53:36;101112.19;;;19.45;94.10
17855;BME280;9053;53.358;6.382;2023-07-13T00:56:06;101121.06;;;19.44;94.23
17855;BME280;9053;53.358;6.382;2023-07-13T00:58:37;101118.41;;;19.42;94.49
17855;BME280;9053;53.358;6.382;2023-07-13T01:01:08;101118.41;;;19.42;94.56
17855;BME280;9053;53.358;6.382;2023-07-13T01:03:40;101116.63;;;19.44;94.63
17855;BME280;9053;53.358;6.382;2023-07-13T01:06:12;101121.97;;;19.44;94.80
17855;BME280;9053;53.358;6.382;2023-07-13T01:08:44;101124.63;;;19.44;94.98
17855;BME280;9053;53.358;6.382;2023-07-13T01:11:18;101123.72;;;19.42;94.84
17855;BME280;9053;53.358;6.382;2023-07-13T01:13:49;101136.19;;;19.42;95.27
17855;BME280;9053;53.358;6.382;2023-07-13T01:16:24;101129.94;;;19.40;95.09
17855;BME280;9053;53.358;6.382;2023-07-13T01:18:56;101120.19;;;19.36;94.98
17855;BME280;9053;53.358;6.382;2023-07-13T01:21:33;101127.28;;;19.31;95.08
17855;BME280;9053;53.358;6.382;2023-07-13T01:24:05;101129.03;;;19.30;95.08
17855;BME280;9053;53.358;6.382;2023-07-13T01:26:35;101121.94;;;19.32;94.91
17855;BME280;9053;53.358;6.382;2023-07-13T01:29:05;101118.41;;;19.33;95.06
17855;BME280;9053;53.358;6.382;2023-07-13T01:31:35;101126.41;;;19.36;95.14
17855;BME280;9053;53.358;6.382;2023-07-13T01:34:06;101121.06;;;19.39;95.01
17855;BME280;9053;53.358;6.382;2023-07-13T01:36:39;101127.28;;;19.41;95.09
17855;BME280;9053;53.358;6.382;2023-07-13T01:39:08;101120.19;;;19.42;95.08
17855;BME280;9053;53.358;6.382;2023-07-13T01:41:38;101113.97;;;19.43;94.83
17855;BME280;9053;53.358;6.382;2023-07-13T01:44:08;101117.53;;;19.43;94.81
17855;BME280;9053;53.358;6.382;2023-07-13T01:46:38;101114.88;;;19.43;94.63
17855;BME280;9053;53.358;6.382;2023-07-13T01:49:08;101126.41;;;19.42;94.68
17855;BME280;9053;53.358;6.382;2023-07-13T01:51:41;101120.19;;;19.42;94.51
17855;BME280;9053;53.358;6.382;2023-07-13T01:54:12;101133.50;;;19.42;94.46
17855;BME280;9053;53.358;6.382;2023-07-13T01:56:42;101137.06;;;19.42;94.21
17855;BME280;9053;53.358;6.382;2023-07-13T01:59:12;101135.28;;;19.40;94.09
17855;BME280;9053;53.358;6.382;2023-07-13T02:01:42;101127.28;;;19.38;93.94
17855;BME280;9053;53.358;6.382;2023-07-13T02:04:13;101133.50;;;19.36;93.80
17855;BME280;9053;53.358;6.382;2023-07-13T02:06:46;101117.50;;;19.31;93.52
17855;BME280;9053;53.358;6.382;2023-07-13T02:09:15;101114.84;;;19.28;93.33
17855;BME280;9053;53.358;6.382;2023-07-13T02:11:45;101123.69;;;19.27;93.19
17855;BME280;9053;53.358;6.382;2023-07-13T02:14:15;101127.25;;;19.26;93.11
17855;BME280;9053;53.358;6.382;2023-07-13T02:16:45;101124.59;;;19.28;93.00
17855;BME280;9053;53.358;6.382;2023-07-13T02:19:15;101137.06;;;19.29;92.98
17855;BME280;9053;53.358;6.382;2023-07-13T02:21:48;101134.38;;;19.29;92.95
17855;BME280;9053;53.358;6.382;2023-07-13T02:24:18;101123.69;;;19.27;92.78
17855;BME280;9053;53.358;6.382;2023-07-13T02:26:48;101128.16;;;19.27;92.78
17855;BME280;9053;53.358;6.382;2023-07-13T02:29:18;101122.81;;;19.25;92.73
17855;BME280;9053;53.358;6.382;2023-07-13T02:31:48;101121.91;;;19.21;92.77
17855;BME280;9053;53.358;6.382;2023-07-13T02:34:18;101121.91;;;19.20;92.79
17855;BME280;9053;53.358;6.382;2023-07-13T02:36:50;101121.00;;;19.16;92.75
17855;BME280;9053;53.358;6.382;2023-07-13T02:39:20;101117.44;;;19.14;92.90
17855;BME280;9053;53.358;6.382;2023-07-13T02:41:50;101119.22;;;19.12;92.92
17855;BME280;9053;53.358;6.382;2023-07-13T02:44:22;101113.91;;;19.11;93.03
17855;BME280;9053;53.358;6.382;2023-07-13T02:46:52;101111.22;;;19.08;93.23
17855;BME280;9053;53.358;6.382;2023-07-13T02:49:22;101116.56;;;19.08;93.25
17855;BME280;9053;53.358;6.382;2023-07-13T02:51:54;101125.41;;;19.07;93.43
17855;BME280;9053;53.358;6.382;2023-07-13T02:54:26;101119.19;;;19.06;93.52
17855;BME280;9053;53.358;6.382;2023-07-13T02:56:56;101121.00;;;19.06;93.69
17855;BME280;9053;53.358;6.382;2023-07-13T02:59:26;101123.66;;;19.06;93.81
17855;BME280;9053;53.358;6.382;2023-07-13T03:01:56;101129.88;;;19.06;93.83
17855;BME280;9053;53.358;6.382;2023-07-13T03:04:26;101130.75;;;19.03;93.88
17855;BME280;9053;53.358;6.382;2023-07-13T03:06:59;101125.41;;;19.00;94.02
17855;BME280;9053;53.358;6.382;2023-07-13T03:09:30;101128.94;;;18.99;94.15
17855;BME280;9053;53.358;6.382;2023-07-13T03:12:00;101135.16;;;18.97;94.00
17855;BME280;9053;53.358;6.382;2023-07-13T03:14:30;101137.84;;;18.98;94.27
17855;BME280;9053;53.358;6.382;2023-07-13T03:17:00;101133.38;;;18.99;94.45
17855;BME280;9053;53.358;6.382;2023-07-13T03:19:30;101144.06;;;18.99;94.41
17855;BME280;9053;53.358;6.382;2023-07-13T03:22:03;101142.28;;;18.98;94.63
17855;BME280;9053;53.358;6.382;2023-07-13T03:24:34;101149.38;;;18.99;94.57
17855;BME280;9053;53.358;6.382;2023-07-13T03:27:06;101145.81;;;18.97;94.71
17855;BME280;9053;53.358;6.382;2023-07-13T03:29:36;101147.56;;;18.95;94.71
17855;BME280;9053;53.358;6.382;2023-07-13T03:32:07;101148.44;;;18.92;94.60
17855;BME280;9053;53.358;6.382;2023-07-13T03:34:37;101145.78;;;18.92;94.79
17855;BME280;9053;53.358;6.382;2023-07-13T03:37:09;101142.25;;;18.90;94.75
17855;BME280;9053;53.358;6.382;2023-07-13T03:39:39;101142.25;;;18.90;94.77
17855;BME280;9053;53.358;6.382;2023-07-13T03:42:09;101144.91;;;18.90;94.97
17855;BME280;9053;53.358;6.382;2023-07-13T03:44:39;101143.13;;;18.91;95.14
17855;BME280;9053;53.358;6.382;2023-07-13T03:47:09;101137.78;;;18.92;95.27
17855;BME280;9053;53.358;6.382;2023-07-13T03:49:39;101137.78;;;18.92;95.37
17855;BME280;9053;53.358;6.382;2023-07-13T03:52:11;101148.44;;;18.92;95.68
17855;BME280;9053;53.358;6.382;2023-07-13T03:54:42;101144.03;;;18.93;95.85
17855;BME280;9053;53.358;6.382;2023-07-13T03:57:12;101148.47;;;18.94;96.09
17855;BME280;9053;53.358;6.382;2023-07-13T03:59:42;101146.69;;;18.94;95.98
17855;BME280;9053;53.358;6.382;2023-07-13T04:02:12;101155.59;;;18.93;96.17
17855;BME280;9053;53.358;6.382;2023-07-13T04:04:43;101158.22;;;18.95;96.23
17855;BME280;9053;53.358;6.382;2023-07-13T04:07:16;101147.59;;;18.93;96.41
17855;BME280;9053;53.358;6.382;2023-07-13T04:09:46;101156.47;;;18.94;96.71
17855;BME280;9053;53.358;6.382;2023-07-13T04:12:16;101161.81;;;18.94;96.68
17855;BME280;9053;53.358;6.382;2023-07-13T04:14:46;101162.69;;;18.96;96.96
17855;BME280;9053;53.358;6.382;2023-07-13T04:17:15;101155.59;;;18.96;97.13
17855;BME280;9053;53.358;6.382;2023-07-13T04:19:46;101161.81;;;18.97;97.08
17855;BME280;9053;53.358;6.382;2023-07-13T04:22:18;101161.81;;;18.98;97.28
17855;BME280;9053;53.358;6.382;2023-07-13T04:24:48;101159.19;;;19.06;97.56
17855;BME280;9053;53.358;6.382;2023-07-13T04:27:18;101164.56;;;19.18;97.86
17855;BME280;9053;53.358;6.382;2023-07-13T04:29:51;101180.63;;;19.35;97.77
17855;BME280;9053;53.358;6.382;2023-07-13T04:32:21;101171.78;;;19.49;97.73
17855;BME280;9053;53.358;6.382;2023-07-13T04:34:51;101178.03;;;19.58;97.18
17855;BME280;9053;53.358;6.382;2023-07-13T04:37:25;101171.78;;;19.62;96.72
17855;BME280;9053;53.358;6.382;2023-07-13T04:39:56;101177.19;;;19.72;96.44
17855;BME280;9053;53.358;6.382;2023-07-13T04:42:26;101173.63;;;19.77;96.17
17855;BME280;9053;53.358;6.382;2023-07-13T04:44:56;101176.28;;;19.88;95.93
17855;BME280;9053;53.358;6.382;2023-07-13T04:47:26;101182.56;;;20.04;96.01
17855;BME280;9053;53.358;6.382;2023-07-13T04:49:56;101175.44;;;20.24;95.86
17855;BME280;9053;53.358;6.382;2023-07-13T04:52:29;101184.31;;;20.45;95.44
17855;BME280;9053;53.358;6.382;2023-07-13T04:55:00;101188.75;;;20.58;95.04
17855;BME280;9053;53.358;6.382;2023-07-13T04:57:30;101182.50;;;20.73;94.57
17855;BME280;9053;53.358;6.382;2023-07-13T05:00:00;101186.00;;;20.95;94.44
17855;BME280;9053;53.358;6.382;2023-07-13T05:02:33;101185.00;;;21.21;94.20
17855;BME280;9053;53.358;6.382;2023-07-13T05:05:04;101197.41;;;21.43;93.47
17855;BME280;9053;53.358;6.382;2023-07-13T05:07:36;101201.75;;;21.66;92.86
17855;BME280;9053;53.358;6.382;2023-07-13T05:10:08;101204.28;;;21.86;92.41
17855;BME280;9053;53.358;6.382;2023-07-13T05:12:39;101200.56;;;22.08;91.77
17855;BME280;9053;53.358;6.382;2023-07-13T05:15:10;101201.31;;;22.30;90.83
17855;BME280;9053;53.358;6.382;2023-07-13T05:17:40;101210.91;;;22.51;90.10
17855;BME280;9053;53.358;6.382;2023-07-13T05:20:10;101205.38;;;22.69;89.39
17855;BME280;9053;53.358;6.382;2023-07-13T05:22:43;101208.78;;;22.84;88.54
17855;BME280;9053;53.358;6.382;2023-07-13T05:25:13;101216.72;;;22.95;87.90
17855;BME280;9053;53.358;6.382;2023-07-13T05:27:43;101209.53;;;23.01;87.25
17855;BME280;9053;53.358;6.382;2023-07-13T05:30:15;101211.19;;;23.10;86.69
17855;BME280;9053;53.358;6.382;2023-07-13T05:32:45;101212.81;;;23.23;86.52
17855;BME280;9053;53.358;6.382;2023-07-13T05:35:15;101210.84;;;23.38;86.12
17855;BME280;9053;53.358;6.382;2023-07-13T05:37:48;101218.75;;;23.48;85.61
17855;BME280;9053;53.358;6.382;2023-07-13T05:40:17;101215.84;;;23.65;85.08
17855;BME280;9053;53.358;6.382;2023-07-13T05:42:47;101222.03;;;23.72;84.47
17855;BME280;9053;53.358;6.382;2023-07-13T05:45:17;101219.16;;;23.86;84.37
17855;BME280;9053;53.358;6.382;2023-07-13T05:47:47;101223.47;;;23.96;83.91
17855;BME280;9053;53.358;6.382;2023-07-13T05:50:17;101219.72;;;24.06;83.45
17855;BME280;9053;53.358;6.382;2023-07-13T05:52:51;101220.53;;;24.11;82.85
17855;BME280;9053;53.358;6.382;2023-07-13T05:55:22;101223.22;;;24.11;82.23
17855;BME280;9053;53.358;6.382;2023-07-13T05:57:52;101220.53;;;24.11;81.88
17855;BME280;9053;53.358;6.382;2023-07-13T06:00:22;101221.44;;;24.12;81.78
17855;BME280;9053;53.358;6.382;2023-07-13T06:02:52;101226.72;;;24.16;81.64
17855;BME280;9053;53.358;6.382;2023-07-13T06:05:22;101235.69;;;24.15;81.25
17855;BME280;9053;53.358;6.382;2023-07-13T06:07:55;101237.47;;;24.16;80.71
17855;BME280;9053;53.358;6.382;2023-07-13T06:10:25;101232.06;;;24.18;80.34
17855;BME280;9053;53.358;6.382;2023-07-13T06:12:55;101233.78;;;24.24;80.04
17855;BME280;9053;53.358;6.382;2023-07-13T06:15:25;101229.31;;;24.23;78.79
17855;BME280;9053;53.358;6.382;2023-07-13T06:17:55;101232.91;;;24.22;78.30
17855;BME280;9053;53.358;6.382;2023-07-13T06:20:25;101234.69;;;24.23;77.72
17855;BME280;9053;53.358;6.382;2023-07-13T06:22:58;101236.50;;;24.22;77.32
17855;BME280;9053;53.358;6.382;2023-07-13T06:25:28;101243.72;;;24.18;76.79
17855;BME280;9053;53.358;6.382;2023-07-13T06:27:58;101241.03;;;24.18;76.51
17855;BME280;9053;53.358;6.382;2023-07-13T06:30:29;101245.53;;;24.16;76.46
17855;BME280;9053;53.358;6.382;2023-07-13T06:32:59;101239.22;;;24.19;76.47
17855;BME280;9053;53.358;6.382;2023-07-13T06:35:29;101247.25;;;24.21;76.04
17855;BME280;9053;53.358;6.382;2023-07-13T06:38:01;101247.25;;;24.21;75.52
17855;BME280;9053;53.358;6.382;2023-07-13T06:40:32;101248.19;;;24.19;75.06
17855;BME280;9053;53.358;6.382;2023-07-13T06:43:02;101252.63;;;24.21;74.86
17855;BME280;9053;53.358;6.382;2023-07-13T06:45:35;101251.75;;;24.20;74.48
17855;BME280;9053;53.358;6.382;2023-07-13T06:48:05;101254.38;;;24.25;74.52
17855;BME280;9053;53.358;6.382;2023-07-13T06:50:37;101267.81;;;24.25;74.11
17855;BME280;9053;53.358;6.382;2023-07-13T06:53:12;101265.22;;;24.18;73.76
17855;BME280;9053;53.358;6.382;2023-07-13T06:55:44;101265.22;;;24.18;73.71
17855;BME280;9053;53.358;6.382;2023-07-13T06:58:15;101263.38;;;24.21;73.41
17855;BME280;9053;53.358;6.382;2023-07-13T07:00:46;101265.22;;;24.18;73.16
17855;BME280;9053;53.358;6.382;2023-07-13T07:03:16;101264.38;;;24.15;73.30
17855;BME280;9053;53.358;6.382;2023-07-13T07:05:46;101273.38;;;24.12;73.64
17855;BME280;9053;53.358;6.382;2023-07-13T07:08:19;101282.25;;;24.16;73.77
17855;BME280;9053;53.358;6.382;2023-07-13T07:10:48;101279.44;;;24.25;73.52
17855;BME280;9053;53.358;6.382;2023-07-13T07:13:21;101274.13;;;24.21;72.58
17855;BME280;9053;53.358;6.382;2023-07-13T07:15:50;101283.38;;;24.04;72.13
17855;BME280;9053;53.358;6.382;2023-07-13T07:18:21;101282.56;;;23.96;72.22
17855;BME280;9053;53.358;6.382;2023-07-13T07:20:51;101287.00;;;24.00;71.70
17855;BME280;9053;53.358;6.382;2023-07-13T07:23:24;101281.63;;;24.00;71.85
17855;BME280;9053;53.358;6.382;2023-07-13T07:25:54;101285.19;;;24.01;71.78
17855;BME280;9053;53.358;6.382;2023-07-13T07:28:24;101287.88;;;24.02;71.92
17855;BME280;9053;53.358;6.382;2023-07-13T07:31:08;101284.28;;;24.02;71.66
17855;BME280;9053;53.358;6.382;2023-07-13T07:33:41;101284.34;;;23.97;71.23
17855;BME280;9053;53.358;6.382;2023-07-13T07:36:11;101291.56;;;23.93;71.69
17855;BME280;9053;53.358;6.382;2023-07-13T07:38:47;101287.13;;;23.91;71.66
17855;BME280;9053;53.358;6.382;2023-07-13T07:41:16;101287.25;;;23.82;71.27
17855;BME280;9053;53.358;6.382;2023-07-13T07:43:49;101296.31;;;23.71;71.15
17855;BME280;9053;53.358;6.382;2023-07-13T07:46:19;101293.69;;;23.67;71.07
17855;BME280;9053;53.358;6.382;2023-07-13T07:48:49;101289.31;;;23.61;71.12
17855;BME280;9053;53.358;6.382;2023-07-13T07:51:19;101295.63;;;23.55;71.00
17855;BME280;9053;53.358;6.382;2023-07-13T07:53:52;101294.84;;;23.46;71.16
17855;BME280;9053;53.358;6.382;2023-07-13T07:56:22;101291.31;;;23.41;71.37
17855;BME280;9053;53.358;6.382;2023-07-13T07:58:54;101296.72;;;23.38;71.61
17855;BME280;9053;53.358;6.382;2023-07-13T08:01:27;101298.53;;;23.39;72.06
17855;BME280;9053;53.358;6.382;2023-07-13T08:04:00;101298.53;;;23.39;72.22
17855;BME280;9053;53.358;6.382;2023-07-13T08:06:33;101296.72;;;23.39;72.57
17855;BME280;9053;53.358;6.382;2023-07-13T08:09:09;101286.88;;;23.41;72.60
17855;BME280;9053;53.358;6.382;2023-07-13T08:11:39;101293.13;;;23.42;72.60
17855;BME280;9053;53.358;6.382;2023-07-13T08:14:12;101295.75;;;23.43;72.47
17855;BME280;9053;53.358;6.382;2023-07-13T08:16:42;101293.03;;;23.48;72.62
17855;BME280;9053;53.358;6.382;2023-07-13T08:19:12;101301.03;;;23.51;72.51
17855;BME280;9053;53.358;6.382;2023-07-13T08:21:42;101303.75;;;23.48;72.70
17855;BME280;9053;53.358;6.382;2023-07-13T08:24:17;101302.00;;;23.45;72.66
17855;BME280;9053;53.358;6.382;2023-07-13T08:26:47;101315.47;;;23.42;72.54
17855;BME280;9053;53.358;6.382;2023-07-13T08:29:17;101303.91;;;23.36;72.66
17855;BME280;9053;53.358;6.382;2023-07-13T08:31:47;101299.50;;;23.31;72.96
17855;BME280;9053;53.358;6.382;2023-07-13T08:34:17;101302.16;;;23.35;72.93
17855;BME280;9053;53.358;6.382;2023-07-13T08:36:47;101307.47;;;23.39;73.20
17855;BME280;9053;53.358;6.382;2023-07-13T08:39:20;101302.03;;;23.44;73.00
17855;BME280;9053;53.358;6.382;2023-07-13T08:41:56;101305.50;;;23.52;72.94
17855;BME280;9053;53.358;6.382;2023-07-13T08:44:35;101306.41;;;23.51;72.47
17855;BME280;9053;53.358;6.382;2023-07-13T08:47:08;101305.47;;;23.55;72.54
17855;BME280;9053;53.358;6.382;2023-07-13T08:49:43;101302.72;;;23.61;72.30
17855;BME280;9053;53.358;6.382;2023-07-13T08:52:30;101300.81;;;23.72;72.14
17855;BME280;9053;53.358;6.382;2023-07-13T08:55:11;101298.78;;;23.88;71.95
17855;BME280;9053;53.358;6.382;2023-07-13T08:57:46;101298.69;;;23.96;71.43
17855;BME280;9053;53.358;6.382;2023-07-13T09:00:33;101305.03;;;23.89;71.32
17855;BME280;9053;53.358;6.382;2023-07-13T09:03:05;101312.31;;;23.81;71.38
17855;BME280;9053;53.358;6.382;2023-07-13T09:05:50;101320.50;;;23.68;72.00
17855;BME280;9053;53.358;6.382;2023-07-13T09:08:36;101310.00;;;23.50;72.44
17855;BME280;9053;53.358;6.382;2023-07-13T09:11:21;101311.13;;;23.33;72.93
17855;BME280;9053;53.358;6.382;2023-07-13T09:13:58;101318.38;;;23.22;73.27
17855;BME280;9053;53.358;6.382;2023-07-13T09:16:34;101312.25;;;23.11;73.54
17855;BME280;9053;53.358;6.382;2023-07-13T09:19:20;101318.63;;;23.01;73.92
17855;BME280;9053;53.358;6.382;2023-07-13T09:21:52;101314.16;;;22.97;74.22
17855;BME280;9053;53.358;6.382;2023-07-13T09:24:32;101307.91;;;22.98;74.58
17855;BME280;9053;53.358;6.382;2023-07-13T09:27:17;101307.81;;;23.08;74.10
17855;BME280;9053;53.358;6.382;2023-07-13T09:29:57;101309.41;;;23.23;73.74
17855;BME280;9053;53.358;6.382;2023-07-13T09:32:32;101314.63;;;23.36;73.63
17855;BME280;9053;53.358;6.382;2023-07-13T09:35:10;101319.97;;;23.40;72.86
17855;BME280;9053;53.358;6.382;2023-07-13T09:37:40;101324.53;;;23.33;72.15
17855;BME280;9053;53.358;6.382;2023-07-13T09:40:20;101323.75;;;23.24;72.23
17855;BME280;9053;53.358;6.382;2023-07-13T09:42:57;101341.78;;;23.11;72.32
17855;BME280;9053;53.358;6.382;2023-07-13T09:45:32;101339.16;;;23.02;71.83
17855;BME280;9053;53.358;6.382;2023-07-13T09:48:06;101342.81;;;22.93;71.88
17855;BME280;9053;53.358;6.382;2023-07-13T09:50:36;101347.31;;;22.86;71.90
17855;BME280;9053;53.358;6.382;2023-07-13T09:53:11;101340.25;;;22.76;71.34
17855;BME280;9053;53.358;6.382;2023-07-13T09:55:43;101343.88;;;22.72;71.16
17855;BME280;9053;53.358;6.382;2023-07-13T09:58:24;101345.66;;;22.73;71.39
17855;BME280;9053;53.358;6.382;2023-07-13T10:00:56;101355.41;;;22.80;72.41
17855;BME280;9053;53.358;6.382;2023-07-13T10:03:29;101359.81;;;22.87;72.89
17855;BME280;9053;53.358;6.382;2023-07-13T10:06:13;101357.06;;;22.95;72.37
17855;BME280;9053;53.358;6.382;2023-07-13T10:08:46;101360.59;;;23.05;72.03
17855;BME280;9053;53.358;6.382;2023-07-13T10:11:24;101357.78;;;23.17;71.78
17855;BME280;9053;53.358;6.382;2023-07-13T10:14:01;101364.91;;;23.21;71.04
17855;BME280;9053;53.358;6.382;2023-07-13T10:16:34;101357.66;;;23.29;71.34
17855;BME280;9053;53.358;6.382;2023-07-13T10:19:09;101365.63;;;23.39;71.25
17855;BME280;9053;53.358;6.382;2023-07-13T10:21:50;101365.53;;;23.45;70.58
17855;BME280;9053;53.358;6.382;2023-07-13T10:24:23;101373.63;;;23.42;69.89
17855;BME280;9053;53.358;6.382;2023-07-13T10:26:58;101369.16;;;23.44;70.17
17855;BME280;9053;53.358;6.382;2023-07-13T10:29:36;101371.75;;;23.51;70.08
17855;BME280;9053;53.358;6.382;2023-07-13T10:32:09;101371.66;;;23.59;69.73
17855;BME280;9053;53.358;6.382;2023-07-13T10:34:43;101373.38;;;23.63;70.08
17855;BME280;9053;53.358;6.382;2023-07-13T10:37:19;101381.31;;;23.77;70.57
17855;BME280;9053;53.358;6.382;2023-07-13T10:39:53;101382.00;;;23.93;71.07
17855;BME280;9053;53.358;6.382;2023-07-13T10:42:31;101370.19;;;24.06;70.16
17855;BME280;9053;53.358;6.382;2023-07-13T10:45:13;101378.25;;;24.06;69.39
17855;BME280;9053;53.358;6.382;2023-07-13T10:47:44;101379.22;;;24.01;68.99
17855;BME280;9053;53.358;6.382;2023-07-13T10:50:18;101381.00;;;24.02;69.43
17855;BME280;9053;53.358;6.382;2023-07-13T10:52:50;101389.81;;;24.11;70.00
17855;BME280;9053;53.358;6.382;2023-07-13T10:55:37;101374.50;;;24.18;70.20
17855;BME280;9053;53.358;6.382;2023-07-13T10:58:19;101383.41;;;24.22;69.42
17855;BME280;9053;53.358;6.382;2023-07-13T11:00:57;101381.56;;;24.27;69.53
17855;BME280;9053;53.358;6.382;2023-07-13T11:03:30;101390.47;;;24.30;69.76
17855;BME280;9053;53.358;6.382;2023-07-13T11:06:09;101395.00;;;24.25;69.80
17855;BME280;9053;53.358;6.382;2023-07-13T11:08:51;101397.97;;;24.07;69.57
17855;BME280;9053;53.358;6.382;2023-07-13T11:11:35;101399.97;;;23.88;69.75
17855;BME280;9053;53.358;6.382;2023-07-13T11:14:26;101399.19;;;23.80;70.44
17855;BME280;9053;53.358;6.382;2023-07-13T11:17:33;101399.19;;;23.80;70.63
17855;BME280;9053;53.358;6.382;2023-07-13T11:20:22;101397.28;;;23.88;71.15
17855;BME280;9053;53.358;6.382;2023-07-13T11:23:26;101405.28;;;23.94;70.52
17855;BME280;9053;53.358;6.382;2023-07-13T11:25:57;101404.31;;;23.98;70.79
17855;BME280;9053;53.358;6.382;2023-07-13T11:28:31;101399.81;;;24.00;70.62
17855;BME280;9053;53.358;6.382;2023-07-13T11:31:10;101412.34;;;24.01;70.79
17855;BME280;9053;53.358;6.382;2023-07-13T11:34:01;101410.66;;;23.94;70.07
17855;BME280;9053;53.358;6.382;2023-07-13T11:36:36;101423.38;;;23.80;70.35
17855;BME280;9053;53.358;6.382;2023-07-13T11:39:20;101427.06;;;23.66;70.93
17855;BME280;9053;53.358;6.382;2023-07-13T11:41:55;101432.56;;;23.51;71.23
17855;BME280;9053;53.358;6.382;2023-07-13T11:44:27;101426.44;;;23.38;72.10
17855;BME280;9053;53.358;6.382;2023-07-13T11:47:00;101423.75;;;23.41;72.72
17855;BME280;9053;53.358;6.382;2023-07-13T11:49:43;101425.41;;;23.53;73.22
17855;BME280;9053;53.358;6.382;2023-07-13T11:52:16;101418.06;;;23.70;73.18
17855;BME280;9053;53.358;6.382;2023-07-13T11:54:49;101418.78;;;23.86;72.54
17855;BME280;9053;53.358;6.382;2023-07-13T11:57:24;101409.69;;;24.00;72.05
17855;BME280;9053;53.358;6.382;2023-07-13T11:59:56;101421.19;;;24.11;71.45
17855;BME280;9053;53.358;6.382;2023-07-13T12:02:28;101431.03;;;24.12;71.14
17855;BME280;9053;53.358;6.382;2023-07-13T12:05:04;101427.56;;;24.01;70.89
17855;BME280;9053;53.358;6.382;2023-07-13T12:07:36;101438.50;;;23.85;71.12
17855;BME280;9053;53.358;6.382;2023-07-13T12:10:18;101444.91;;;23.70;71.60
17855;BME280;9053;53.358;6.382;2023-07-13T12:12:51;101445.06;;;23.55;71.71
17855;BME280;9053;53.358;6.382;2023-07-13T12:15:22;101451.47;;;23.40;71.84
17855;BME280;9053;53.358;6.382;2023-07-13T12:17:53;101442.63;;;23.30;72.47
17855;BME280;9053;53.358;6.382;2023-07-13T12:20:27;101442.56;;;23.38;72.97
17855;BME280;9053;53.358;6.382;2023-07-13T12:23:05;101445.16;;;23.47;72.46
17855;BME280;9053;53.358;6.382;2023-07-13T12:25:38;101440.72;;;23.43;71.82
17855;BME280;9053;53.358;6.382;2023-07-13T12:28:20;101448.81;;;23.42;71.65
17855;BME280;9053;53.358;6.382;2023-07-13T12:30:58;101459.50;;;23.45;71.69
17855;BME280;9053;53.358;6.382;2023-07-13T12:33:29;101457.66;;;23.51;71.94
17855;BME280;9053;53.358;6.382;2023-07-13T12:36:05;101462.06;;;23.59;72.33
17855;BME280;9053;53.358;6.382;2023-07-13T12:38:36;101447.59;;;23.75;73.06
17855;BME280;9053;53.358;6.382;2023-07-13T12:41:08;101458.16;;;23.92;73.52
17855;BME280;9053;53.358;6.382;2023-07-13T12:43:39;101444.56;;;24.01;73.47
17855;BME280;9053;53.358;6.382;2023-07-13T12:46:17;101460.66;;;24.07;73.82
17855;BME280;9053;53.358;6.382;2023-07-13T12:48:53;101460.69;;;24.04;73.35
17855;BME280;9053;53.358;6.382;2023-07-13T12:51:49;101465.38;;;23.87;72.81
17855;BME280;9053;53.358;6.382;2023-07-13T12:54:20;101478.03;;;23.72;72.55
17855;BME280;9053;53.358;6.382;2023-07-13T12:56:52;101466.56;;;23.55;72.34
17855;BME280;9053;53.358;6.382;2023-07-13T12:59:28;101475.59;;;23.45;72.64
17855;BME280;9053;53.358;6.382;2023-07-13T13:02:00;101470.28;;;23.42;72.83
17855;BME280;9053;53.358;6.382;2023-07-13T13:04:30;101467.66;;;23.32;72.59
17855;BME280;9053;53.358;6.382;2023-07-13T13:07:05;101474.00;;;23.24;72.44
17855;BME280;9053;53.358;6.382;2023-07-13T13:09:37;101466.78;;;23.32;72.53
17855;BME280;9053;53.358;6.382;2023-07-13T13:12:08;101468.47;;;23.41;72.52
17855;BME280;9053;53.358;6.382;2023-07-13T13:14:40;101477.38;;;23.46;72.16
17855;BME280;9053;53.358;6.382;2023-07-13T13:17:20;101489.03;;;23.46;71.93
17855;BME280;9053;53.358;6.382;2023-07-13T13:19:51;101486.31;;;23.48;72.50
17855;BME280;9053;53.358;6.382;2023-07-13T13:22:27;101480.94;;;23.48;72.70
17855;BME280;9053;53.358;6.382;2023-07-13T13:25:00;101473.81;;;23.47;72.96
17855;BME280;9053;53.358;6.382;2023-07-13T13:27:32;101496.19;;;23.44;72.98
17855;BME280;9053;53.358;6.382;2023-07-13T13:30:03;101497.03;;;23.48;72.84
17855;BME280;9053;53.358;6.382;2023-07-13T13:32:35;101496.13;;;23.50;72.40
17855;BME280;9053;53.358;6.382;2023-07-13T13:35:12;101486.22;;;23.57;72.27